Time;durP1;ratioP1;P1;durP2;ratioP2;P2;SDS_P1;SDS_P2;PMS_P1;PMS_P2;Temp;Humidity;BMP_temperature;BMP_pressure;BME280_temperature;BME280_humidity;BME280_pressure;Samples;Min_cycle;Max_cycle;Signal;HPM_P1;HPM_P2
2021/05/28 00:01:50;;;;;;;6.45;2.80;;;;;;;;;;5114222;28;20041;-81
2021/05/28 00:04:16;;;;;;;3.83;3.20;;;;;;;;;;5114212;28;20024;-82
2021/05/28 00:06:42;;;;;;;3.85;3.45;;;;;;;;;;5113954;28;20115;-82
2021/05/28 00:09:08;;;;;;;5.80;3.80;;;;;;;;;;5114132;28;20034;-82
2021/05/28 00:11:34;;;;;;;3.28;2.67;;;;;;;;;;5113884;28;20020;-82
2021/05/28 00:14:00;;;;;;;4.88;3.13;;;;;;;;;;5095542;28;20032;-80
2021/05/28 00:16:26;;;;;;;3.75;3.08;;;;;;;;;;5113808;28;20505;-81
2021/05/28 00:18:56;;;;;;;4.20;3.08;;;;;;;;;;5113879;28;20032;-82
2021/05/28 00:21:22;;;;;;;4.25;3.03;;;;;;;;;;5113887;28;20080;-82
2021/05/28 00:23:48;;;;;;;4.32;3.00;;;;;;;;;;5113752;28;20028;-80
2021/05/28 00:26:14;;;;;;;4.43;3.28;;;;;;;;;;5113672;28;20038;-80
2021/05/28 00:28:42;;;;;;;4.00;2.55;;;;;;;;;;5113711;28;20024;-80
2021/05/28 00:31:08;;;;;;;6.03;3.28;;;;;;;;;;5113743;28;20176;-80
2021/05/28 00:33:34;;;;;;;5.65;2.88;;;;;;;;;;5113391;28;20034;-81
2021/05/28 00:36:00;;;;;;;4.03;2.58;;;;;;;;;;5113377;28;20119;-80
2021/05/28 00:38:26;;;;;;;3.92;2.67;;;;;;;;;;5094927;28;20375;-81
2021/05/28 00:40:52;;;;;;;3.53;2.72;;;;;;;;;;5113388;28;20031;-82
2021/05/28 00:43:18;;;;;;;4.72;2.80;;;;;;;;;;5113600;28;20032;-81
2021/05/28 00:45:44;;;;;;;3.35;3.03;;;;;;;;;;5113160;28;20028;-80
2021/05/28 00:48:10;;;;;;;5.57;3.33;;;;;;;;;;5113142;28;20069;-79
2021/05/28 00:50:37;;;;;;;3.85;2.60;;;;;;;;;;5113141;28;20085;-79
2021/05/28 00:53:03;;;;;;;4.00;2.58;;;;;;;;;;5113339;28;20023;-79
2021/05/28 00:55:29;;;;;;;4.05;2.88;;;;;;;;;;5113199;28;20030;-80
2021/05/28 00:57:56;;;;;;;4.90;2.78;;;;;;;;;;5094620;28;20019;-80
2021/05/28 01:00:24;;;;;;;4.38;3.03;;;;;;;;;;5113267;28;20027;-82
2021/05/28 01:02:51;;;;;;;3.17;2.88;;;;;;;;;;5112756;28;20085;-81
2021/05/28 01:05:17;;;;;;;3.63;2.55;;;;;;;;;;5113257;28;20096;-80
2021/05/28 01:07:43;;;;;;;2.45;2.00;;;;;;;;;;5113010;28;20023;-81
2021/05/28 01:10:09;;;;;;;2.53;2.22;;;;;;;;;;5113322;28;20024;-80
2021/05/28 01:12:35;;;;;;;4.53;3.03;;;;;;;;;;5112995;28;20367;-83
2021/05/28 01:15:02;;;;;;;3.58;3.00;;;;;;;;;;5113007;28;20024;-82
2021/05/28 01:17:28;;;;;;;4.50;3.15;;;;;;;;;;5113108;28;20034;-81
2021/05/28 01:19:54;;;;;;;4.65;3.20;;;;;;;;;;5112706;28;20023;-80
2021/05/28 01:22:20;;;;;;;5.13;3.22;;;;;;;;;;5112792;28;20105;-81
2021/05/28 01:24:50;;;;;;;3.20;2.88;;;;;;;;;;5094321;28;20114;-81
2021/05/28 01:27:17;;;;;;;4.45;3.47;;;;;;;;;;5112999;28;20028;-79
2021/05/28 01:29:43;;;;;;;5.68;3.92;;;;;;;;;;5112731;28;20478;-81
2021/05/28 01:32:09;;;;;;;5.55;3.55;;;;;;;;;;5112914;28;20038;-81
2021/05/28 01:34:35;;;;;;;3.75;3.30;;;;;;;;;;5112500;28;20082;-82
2021/05/28 01:37:02;;;;;;;6.07;4.10;;;;;;;;;;5112633;28;20478;-80
2021/05/28 01:39:28;;;;;;;5.72;4.53;;;;;;;;;;5112743;28;20537;-81
2021/05/28 01:41:54;;;;;;;5.47;4.88;;;;;;;;;;5112495;28;20036;-78
2021/05/28 01:44:20;;;;;;;5.65;4.80;;;;;;;;;;5112752;28;20023;-80
2021/05/28 01:46:48;;;;;;;5.50;4.97;;;;;;;;;;5094097;28;20068;-83
2021/05/28 01:49:14;;;;;;;6.88;5.53;;;;;;;;;;5112755;28;20024;-80
2021/05/28 01:51:48;;;;;;;7.35;5.35;;;;;;;;;;5112539;28;20023;-79
2021/05/28 01:54:14;;;;;;;6.80;4.82;;;;;;;;;;5112692;28;20564;-80
2021/05/28 01:56:40;;;;;;;6.18;5.57;;;;;;;;;;5112397;28;20035;-81
2021/05/28 01:59:09;;;;;;;7.22;5.40;;;;;;;;;;5112515;28;20554;-81
2021/05/28 02:01:35;;;;;;;6.32;5.10;;;;;;;;;;5115710;28;20106;-82
2021/05/28 02:04:03;;;;;;;9.55;5.90;;;;;;;;;;5116318;28;20027;-82
2021/05/28 02:06:29;;;;;;;6.45;4.82;;;;;;;;;;5116608;28;20474;-81
2021/05/28 02:08:55;;;;;;;5.90;4.90;;;;;;;;;;5116273;28;20027;-80
2021/05/28 02:11:21;;;;;;;5.07;4.45;;;;;;;;;;5116434;28;20020;-83
2021/05/28 02:13:47;;;;;;;5.20;4.70;;;;;;;;;;5116271;28;20020;-81
2021/05/28 02:16:13;;;;;;;7.25;5.30;;;;;;;;;;5116249;28;20084;-81
2021/05/28 02:18:39;;;;;;;5.20;4.47;;;;;;;;;;5116202;28;20077;-82
2021/05/28 02:21:05;;;;;;;5.32;4.55;;;;;;;;;;5115950;28;20075;-80
2021/05/28 02:23:31;;;;;;;6.05;5.45;;;;;;;;;;5116002;28;20065;-79
2021/05/28 02:25:57;;;;;;;5.50;4.85;;;;;;;;;;5116014;28;20027;-81
2021/05/28 02:28:23;;;;;;;5.95;5.30;;;;;;;;;;5116062;28;20032;-80
2021/05/28 02:30:50;;;;;;;5.82;5.22;;;;;;;;;;5115802;28;20158;-79
2021/05/28 02:33:16;;;;;;;5.97;4.60;;;;;;;;;;5115992;28;20024;-79
2021/05/28 02:35:42;;;;;;;8.52;5.25;;;;;;;;;;5097510;28;20043;-81
2021/05/28 02:38:08;;;;;;;5.22;4.20;;;;;;;;;;5115681;28;20047;-80
2021/05/28 02:40:34;;;;;;;6.88;5.00;;;;;;;;;;5115795;28;20508;-79
2021/05/28 02:43:00;;;;;;;6.05;4.70;;;;;;;;;;5115572;28;20042;-80
2021/05/28 02:45:26;;;;;;;5.68;5.03;;;;;;;;;;5115541;28;20390;-79
2021/05/28 02:47:53;;;;;;;8.10;5.90;;;;;;;;;;5115706;28;20092;-80
2021/05/28 02:50:19;;;;;;;7.05;5.80;;;;;;;;;;5115560;28;20031;-80
2021/05/28 02:52:45;;;;;;;8.15;6.13;;;;;;;;;;5115596;28;20046;-78
2021/05/28 02:55:11;;;;;;;9.75;5.65;;;;;;;;;;5115264;28;20467;-77
2021/05/28 02:57:37;;;;;;;5.72;5.13;;;;;;;;;;5115456;28;20027;-79
2021/05/28 03:00:05;;;;;;;6.68;5.80;;;;;;;;;;5115212;28;20035;-78
2021/05/28 03:02:31;;;;;;;5.97;5.32;;;;;;;;;;5115275;28;20036;-78
2021/05/28 03:04:58;;;;;;;5.45;4.95;;;;;;;;;;5115551;28;20049;-80
2021/05/28 03:07:24;;;;;;;8.43;5.57;;;;;;;;;;5115295;28;20023;-80
2021/05/28 03:09:50;;;;;;;6.32;5.28;;;;;;;;;;5115431;28;20402;-80
2021/05/28 03:12:16;;;;;;;6.30;5.25;;;;;;;;;;5114853;28;20057;-80
2021/05/28 03:14:42;;;;;;;7.30;5.55;;;;;;;;;;5115040;28;20098;-79
2021/05/28 03:17:08;;;;;;;6.00;5.22;;;;;;;;;;5114862;28;20031;-79
2021/05/28 03:19:42;;;;;;;5.95;5.35;;;;;;;;;;5115027;28;20080;-80
2021/05/28 03:24:53;;;;;;;6.82;4.28;;;;;;;;;;5114674;28;19914;-77
2021/05/28 03:27:19;;;;;;;6.15;5.00;;;;;;;;;;5114979;28;20028;-77
2021/05/28 03:29:45;;;;;;;6.60;5.90;;;;;;;;;;5114834;28;20054;-81
2021/05/28 03:32:11;;;;;;;7.07;5.82;;;;;;;;;;5114913;28;20038;-78
2021/05/28 03:34:37;;;;;;;7.80;6.60;;;;;;;;;;5114530;28;20048;-78
2021/05/28 03:37:03;;;;;;;7.28;5.88;;;;;;;;;;5114696;28;20458;-78
2021/05/28 03:39:30;;;;;;;10.07;7.75;;;;;;;;;;5114797;28;20027;-79
2021/05/28 03:41:56;;;;;;;7.30;6.45;;;;;;;;;;5114227;28;20031;-79
2021/05/28 03:44:22;;;;;;;7.22;5.57;;;;;;;;;;5114599;28;20037;-79
2021/05/28 03:46:48;;;;;;;6.50;5.53;;;;;;;;;;5114442;28;20030;-80
2021/05/28 03:49:14;;;;;;;9.15;6.03;;;;;;;;;;5114222;28;20099;-80
2021/05/28 03:51:40;;;;;;;6.47;5.47;;;;;;;;;;5114384;28;20058;-80
2021/05/28 03:54:07;;;;;;;6.53;5.47;;;;;;;;;;5114001;28;20120;-77
2021/05/28 03:56:33;;;;;;;6.10;5.50;;;;;;;;;;5114259;28;20126;-80
2021/05/28 03:58:59;;;;;;;7.38;5.18;;;;;;;;;;5114364;28;20118;-78
2021/05/28 04:01:25;;;;;;;8.38;5.53;;;;;;;;;;5114274;28;20032;-79
2021/05/28 04:03:51;;;;;;;9.45;5.22;;;;;;;;;;5114059;28;20469;-79
2021/05/28 04:06:17;;;;;;;7.55;5.20;;;;;;;;;;5095652;28;20066;-79
2021/05/28 04:08:43;;;;;;;6.85;5.40;;;;;;;;;;5113837;28;20058;-78
2021/05/28 04:11:09;;;;;;;7.15;5.72;;;;;;;;;;5113802;28;20042;-79
2021/05/28 04:13:36;;;;;;;6.43;5.07;;;;;;;;;;5114028;28;20031;-80
2021/05/28 04:16:02;;;;;;;9.82;5.85;;;;;;;;;;5113905;28;20086;-80
2021/05/28 04:18:28;;;;;;;6.85;5.30;;;;;;;;;;5113944;28;20032;-78
2021/05/28 04:20:54;;;;;;;9.20;5.85;;;;;;;;;;5113732;28;20478;-79
2021/05/28 04:23:20;;;;;;;7.32;5.60;;;;;;;;;;5112741;28;20044;-80
2021/05/28 04:25:47;;;;;;;7.63;5.75;;;;;;;;;;5113663;28;20054;-79
2021/05/28 04:28:13;;;;;;;6.03;5.28;;;;;;;;;;5113289;28;20028;-79
2021/05/28 04:30:40;;;;;;;7.35;6.65;;;;;;;;;;5113509;28;20398;-79
2021/05/28 04:33:06;;;;;;;7.57;6.50;;;;;;;;;;5113242;28;20024;-80
2021/05/28 04:35:33;;;;;;;6.03;5.47;;;;;;;;;;5113151;28;20043;-78
2021/05/28 04:37:59;;;;;;;7.32;6.20;;;;;;;;;;5113223;28;20028;-77
2021/05/28 04:40:27;;;;;;;8.35;6.28;;;;;;;;;;5113228;28;20102;-80
2021/05/28 04:42:54;;;;;;;8.63;6.38;;;;;;;;;;5113127;28;20074;-79
2021/05/28 04:45:20;;;;;;;7.93;5.85;;;;;;;;;;5113096;28;20475;-80
2021/05/28 04:47:46;;;;;;;7.35;5.68;;;;;;;;;;5113453;28;20103;-78
2021/05/28 04:50:12;;;;;;;7.05;5.68;;;;;;;;;;5113389;28;20430;-81
2021/05/28 04:52:39;;;;;;;6.88;6.10;;;;;;;;;;5113154;28;20474;-79
2021/05/28 04:55:05;;;;;;;8.05;6.18;;;;;;;;;;5113326;28;20046;-79
2021/05/28 04:57:31;;;;;;;8.23;5.93;;;;;;;;;;5113038;28;20020;-77
2021/05/28 04:59:57;;;;;;;8.60;6.55;;;;;;;;;;5113253;28;20032;-79
2021/05/28 05:02:23;;;;;;;6.72;6.07;;;;;;;;;;5112897;28;20043;-80
2021/05/28 05:04:49;;;;;;;5.68;5.03;;;;;;;;;;5105201;28;20028;-76
2021/05/28 05:07:16;;;;;;;8.02;5.35;;;;;;;;;;5108155;28;20106;-81
2021/05/28 05:09:42;;;;;;;8.50;6.15;;;;;;;;;;5106466;28;20035;-76
2021/05/28 05:12:08;;;;;;;6.78;5.53;;;;;;;;;;5074825;28;20485;-82
2021/05/28 05:14:34;;;;;;;5.82;5.22;;;;;;;;;;5092005;28;20031;-81
2021/05/28 05:17:00;;;;;;;8.93;5.90;;;;;;;;;;5092133;28;20039;-75
2021/05/28 05:19:26;;;;;;;6.25;4.88;;;;;;;;;;5092136;28;20028;-80
2021/05/28 05:21:53;;;;;;;6.05;4.65;;;;;;;;;;5102356;28;20038;-79
2021/05/28 05:24:19;;;;;;;7.60;4.75;;;;;;;;;;5112307;28;20428;-80
2021/05/28 05:26:45;;;;;;;7.05;4.80;;;;;;;;;;5104431;28;20081;-80
2021/05/28 05:29:11;;;;;;;7.13;4.05;;;;;;;;;;5106845;28;20024;-83
2021/05/28 05:31:39;;;;;;;7.97;4.82;;;;;;;;;;5077881;28;20106;-77
2021/05/28 05:34:06;;;;;;;8.88;7.65;;;;;;;;;;5112179;28;20024;-82
2021/05/28 05:36:33;;;;;;;11.18;6.97;;;;;;;;;;5116720;28;20026;-78
2021/05/28 05:38:59;;;;;;;10.45;7.47;;;;;;;;;;5114852;28;20371;-79
2021/05/28 05:41:26;;;;;;;6.32;5.07;;;;;;;;;;5110092;28;20104;-80
2021/05/28 05:43:52;;;;;;;5.70;4.80;;;;;;;;;;5096706;28;20115;-81
2021/05/28 05:46:18;;;;;;;6.05;4.80;;;;;;;;;;5098381;28;20028;-80
2021/05/28 05:48:44;;;;;;;4.85;3.85;;;;;;;;;;5109775;28;20027;-80
2021/05/28 05:51:10;;;;;;;5.03;3.45;;;;;;;;;;5115792;28;20028;-80
2021/05/28 05:53:36;;;;;;;4.47;3.50;;;;;;;;;;5104174;28;20502;-83
2021/05/28 05:56:03;;;;;;;4.00;3.38;;;;;;;;;;5075463;28;20042;-81
2021/05/28 05:58:29;;;;;;;5.72;3.70;;;;;;;;;;5108457;28;20489;-82
2021/05/28 06:00:55;;;;;;;4.10;3.70;;;;;;;;;;5115384;28;20028;-80
2021/05/28 06:03:21;;;;;;;5.35;3.80;;;;;;;;;;5114971;28;20096;-79
2021/05/28 06:05:47;;;;;;;7.60;3.97;;;;;;;;;;5114645;28;20031;-78
2021/05/28 06:08:13;;;;;;;4.60;3.72;;;;;;;;;;5101499;28;20024;-81
2021/05/28 06:10:40;;;;;;;5.22;4.15;;;;;;;;;;5094677;28;20035;-82
2021/05/28 06:13:07;;;;;;;7.72;5.78;;;;;;;;;;5094856;28;20046;-80
2021/05/28 06:15:33;;;;;;;4.18;3.28;;;;;;;;;;5093541;28;20020;-80
2021/05/28 06:18:00;;;;;;;4.28;3.90;;;;;;;;;;5094296;28;20028;-80
2021/05/28 06:20:26;;;;;;;6.38;3.63;;;;;;;;;;5094805;28;20052;-81
2021/05/28 06:22:52;;;;;;;6.65;4.30;;;;;;;;;;5094304;28;20063;-80
2021/05/28 06:25:18;;;;;;;6.10;4.20;;;;;;;;;;5094505;28;20110;-82
2021/05/28 06:27:44;;;;;;;9.30;5.05;;;;;;;;;;5094177;28;20020;-79
2021/05/28 06:30:11;;;;;;;4.72;4.22;;;;;;;;;;5094416;28;20047;-82
2021/05/28 06:32:37;;;;;;;6.32;4.35;;;;;;;;;;5094344;28;20442;-81
2021/05/28 06:35:04;;;;;;;4.65;3.88;;;;;;;;;;5093935;28;20372;-79
2021/05/28 06:37:30;;;;;;;6.47;3.90;;;;;;;;;;5075564;28;20043;-81
2021/05/28 06:39:56;;;;;;;4.57;3.80;;;;;;;;;;5094226;28;20024;-79
2021/05/28 06:42:22;;;;;;;6.45;4.40;;;;;;;;;;5075577;28;20092;-76
2021/05/28 06:44:49;;;;;;;7.07;4.85;;;;;;;;;;5093856;28;20035;-77
2021/05/28 06:47:16;;;;;;;5.60;5.05;;;;;;;;;;5093706;28;20020;-78
2021/05/28 06:49:43;;;;;;;5.43;4.18;;;;;;;;;;5093998;28;20470;-82
2021/05/28 06:52:09;;;;;;;4.78;3.65;;;;;;;;;;5105946;28;20104;-76
2021/05/28 06:54:35;;;;;;;4.95;4.30;;;;;;;;;;5114087;28;20023;-79
2021/05/28 06:57:02;;;;;;;7.78;5.47;;;;;;;;;;5113979;28;20034;-83
2021/05/28 06:59:28;;;;;;;5.25;3.42;;;;;;;;;;5095910;28;20038;-85
2021/05/28 07:01:55;;;;;;;7.05;3.90;;;;;;;;;;5114049;28;20061;-79
2021/05/28 07:04:21;;;;;;;5.03;3.80;;;;;;;;;;5114329;28;20030;-71
2021/05/28 07:06:47;;;;;;;5.22;3.97;;;;;;;;;;5113745;28;20046;-81
2021/05/28 07:09:14;;;;;;;6.50;4.30;;;;;;;;;;5114060;28;20024;-78
2021/05/28 07:11:40;;;;;;;6.30;4.70;;;;;;;;;;5095224;28;20575;-79
2021/05/28 07:14:06;;;;;;;5.95;4.45;;;;;;;;;;5113883;28;20096;-85
2021/05/28 07:16:33;;;;;;;5.38;4.07;;;;;;;;;;5113765;28;20051;-78
2021/05/28 07:18:59;;;;;;;5.82;4.47;;;;;;;;;;5113562;28;20016;-76
2021/05/28 07:21:25;;;;;;;6.30;4.40;;;;;;;;;;5113471;28;20032;-77
2021/05/28 07:23:51;;;;;;;5.43;4.15;;;;;;;;;;5113517;28;20032;-79
2021/05/28 07:26:18;;;;;;;6.13;4.72;;;;;;;;;;5113877;28;20066;-79
2021/05/28 07:28:44;;;;;;;5.32;2.20;;;;;;;;;;5113537;28;20024;-79
2021/05/28 07:31:10;;;;;;;4.53;1.63;;;;;;;;;;5096486;28;20398;-82
2021/05/28 07:33:37;;;;;;;6.47;1.70;;;;;;;;;;5092794;28;20028;-82
2021/05/28 07:36:03;;;;;;;6.85;1.80;;;;;;;;;;5092934;28;20044;-78
2021/05/28 07:38:29;;;;;;;4.32;0.93;;;;;;;;;;5093275;28;20028;-82
2021/05/28 07:40:55;;;;;;;3.70;1.30;;;;;;;;;;5097840;28;20118;-77
2021/05/28 07:43:21;;;;;;;3.72;1.98;;;;;;;;;;5105613;28;20467;-79
2021/05/28 07:45:51;;;;;;;4.57;0.70;;;;;;;;;;5113135;28;20503;-77
2021/05/28 07:48:18;;;;;;;2.17;0.52;;;;;;;;;;5094931;28;20537;-78
2021/05/28 07:50:48;;;;;;;1.80;0.50;;;;;;;;;;5113165;28;20065;-75
2021/05/28 07:53:14;;;;;;;0.90;0.40;;;;;;;;;;5092719;28;20028;-81
2021/05/28 07:55:40;;;;;;;2.40;0.75;;;;;;;;;;5092386;28;20054;-81
2021/05/28 07:58:06;;;;;;;3.75;0.50;;;;;;;;;;5091637;28;20497;-80
2021/05/28 08:00:33;;;;;;;1.65;0.52;;;;;;;;;;5093003;28;20027;-78
2021/05/28 08:03:00;;;;;;;2.78;0.88;;;;;;;;;;5092402;28;20043;-76
2021/05/28 08:05:27;;;;;;;1.70;0.50;;;;;;;;;;5093048;28;20020;-79
2021/05/28 08:07:54;;;;;;;4.70;3.22;;;;;;;;;;5090924;28;20028;-71
2021/05/28 08:10:20;;;;;;;4.18;1.73;;;;;;;;;;5074639;28;20609;-77
2021/05/28 08:12:47;;;;;;;3.05;1.52;;;;;;;;;;5092178;28;20085;-76
2021/05/28 08:15:13;;;;;;;0.82;0.65;;;;;;;;;;5092226;28;20021;-76
2021/05/28 08:17:39;;;;;;;2.70;0.88;;;;;;;;;;5110790;28;20385;-76
2021/05/28 08:20:06;;;;;;;1.73;0.80;;;;;;;;;;5112007;28;20091;-77
2021/05/28 08:22:32;;;;;;;0.60;0.40;;;;;;;;;;5112452;28;20478;-78
2021/05/28 08:24:58;;;;;;;1.08;0.50;;;;;;;;;;5112200;28;20375;-75
2021/05/28 08:27:33;;;;;;;1.58;0.40;;;;;;;;;;5112593;28;20038;-76
2021/05/28 08:29:59;;;;;;;1.27;0.30;;;;;;;;;;5093950;28;20074;-76
2021/05/28 08:32:25;;;;;;;2.50;0.40;;;;;;;;;;5111674;28;20098;-77
2021/05/28 08:34:52;;;;;;;1.35;0.50;;;;;;;;;;5110759;28;20531;-76
2021/05/28 08:37:18;;;;;;;4.13;0.60;;;;;;;;;;5112005;28;20375;-78
2021/05/28 08:39:44;;;;;;;3.65;0.90;;;;;;;;;;5093666;28;20027;-79
2021/05/28 08:42:11;;;;;;;1.58;0.60;;;;;;;;;;5106797;28;20039;-80
2021/05/28 08:44:38;;;;;;;1.80;0.70;;;;;;;;;;5103322;28;20031;-79
2021/05/28 08:47:04;;;;;;;2.17;0.50;;;;;;;;;;5102513;27;20102;-77
2021/05/28 08:49:31;;;;;;;1.85;0.40;;;;;;;;;;5080807;28;20498;-77
2021/05/28 08:51:58;;;;;;;5.45;0.60;;;;;;;;;;5097782;28;20161;-83
2021/05/28 08:54:27;;;;;;;1.00;0.40;;;;;;;;;;5092124;28;20039;-78
2021/05/28 08:56:53;;;;;;;3.15;1.02;;;;;;;;;;5092134;28;20032;-79
2021/05/28 08:59:19;;;;;;;3.75;0.95;;;;;;;;;;5098413;28;20036;-79
2021/05/28 09:01:45;;;;;;;2.47;0.80;;;;;;;;;;5101884;28;20084;-78
2021/05/28 09:04:12;;;;;;;2.70;0.93;;;;;;;;;;5111511;28;20447;-79
2021/05/28 09:06:42;;;;;;;2.90;0.50;;;;;;;;;;5111586;28;20103;-77
2021/05/28 09:09:12;;;;;;;2.95;0.70;;;;;;;;;;5107287;28;20076;-77
2021/05/28 09:12:00;;;;;;;2.78;0.90;;;;;;;;;;5103980;28;20089;-75
2021/05/28 09:14:44;;;;;;;3.38;0.65;;;;;;;;;;5099695;27;20030;-76
2021/05/28 09:17:10;;;;;;;;;;;;;;;;;;5130353;27;20034;-78
2021/05/28 09:19:37;;;;;;;3.42;0.95;;;;;;;;;;5111530;28;19908;-77
2021/05/28 09:22:07;;;;;;;1.55;0.60;;;;;;;;;;5111422;28;20037;-78
2021/05/28 09:24:35;;;;;;;1.52;0.70;;;;;;;;;;5111535;28;20034;-79
2021/05/28 09:27:22;;;;;;;1.60;0.70;;;;;;;;;;5116457;27;20027;-79
2021/05/28 09:30:03;;;;;;;0.80;0.60;;;;;;;;;;5129340;27;20034;-76
2021/05/28 09:32:29;;;;;;;2.83;0.45;;;;;;;;;;5111523;28;20505;-76
2021/05/28 09:34:56;;;;;;;1.88;0.57;;;;;;;;;;5111638;28;20043;-75
2021/05/28 09:37:34;;;;;;;1.83;0.47;;;;;;;;;;5111487;28;20034;-77
2021/05/28 09:40:07;;;;;;;1.58;0.55;;;;;;;;;;5107675;28;20032;-76
2021/05/28 09:42:50;;;;;;;2.22;0.50;;;;;;;;;;5097276;28;20116;-83
2021/05/28 09:45:19;;;;;;;1.45;0.82;;;;;;;;;;5111254;28;20055;-76
2021/05/28 09:47:45;;;;;;;1.20;0.50;;;;;;;;;;5092866;28;20035;-76
2021/05/28 09:50:13;;;;;;;16.63;2.67;;;;;;;;;;5111309;28;20108;-78
2021/05/28 09:52:40;;;;;;;0.70;0.50;;;;;;;;;;5110749;28;20492;-77
2021/05/28 09:55:11;;;;;;;2.17;0.50;;;;;;;;;;5110925;28;20036;-79
2021/05/28 09:57:46;;;;;;;3.28;0.77;;;;;;;;;;5111046;28;20047;-78
2021/05/28 10:00:31;;;;;;;3.08;0.60;;;;;;;;;;5092530;28;20383;-78
2021/05/28 10:03:10;;;;;;;2.55;0.95;;;;;;;;;;5111205;28;20036;-78
2021/05/28 10:05:37;;;;;;;1.65;0.60;;;;;;;;;;5111024;28;20412;-79
2021/05/28 10:08:05;;;;;;;1.95;0.57;;;;;;;;;;5110790;28;20019;-75
2021/05/28 10:10:31;;;;;;;2.45;0.70;;;;;;;;;;5110823;28;20027;-76
2021/05/28 10:12:57;;;;;;;1.48;0.65;;;;;;;;;;5110921;28;20478;-77
2021/05/28 10:15:23;;;;;;;2.03;0.50;;;;;;;;;;5110516;28;20028;-76
2021/05/28 10:17:50;;;;;;;1.98;0.50;;;;;;;;;;5109748;28;20039;-76
2021/05/28 10:20:17;;;;;;;2.10;0.75;;;;;;;;;;5108973;28;20035;-78
2021/05/28 10:22:43;;;;;;;3.05;0.90;;;;;;;;;;5102846;28;20039;-77
2021/05/28 10:25:09;;;;;;;2.15;0.60;;;;;;;;;;5094428;28;20056;-75
2021/05/28 10:27:35;;;;;;;1.50;0.52;;;;;;;;;;5094035;28;20069;-77
2021/05/28 10:30:12;;;;;;;3.72;0.70;;;;;;;;;;5094176;28;20105;-77
2021/05/28 10:32:38;;;;;;;1.58;0.80;;;;;;;;;;5093618;28;20032;-77
2021/05/28 10:35:10;;;;;;;2.97;1.17;;;;;;;;;;5104795;28;20491;-78
2021/05/28 10:37:37;;;;;;;2.92;0.95;;;;;;;;;;5097490;28;20546;-77
2021/05/28 10:40:04;;;;;;;1.20;0.90;;;;;;;;;;5093923;28;20525;-78
2021/05/28 10:42:30;;;;;;;2.83;0.70;;;;;;;;;;5093733;28;20043;-74
2021/05/28 10:44:56;;;;;;;3.25;1.35;;;;;;;;;;5094948;28;20030;-77
2021/05/28 10:47:23;;;;;;;2.67;1.05;;;;;;;;;;5107723;28;20047;-76
2021/05/28 10:50:03;;;;;;;5.15;2.10;;;;;;;;;;5096265;28;20024;-77
2021/05/28 10:52:30;;;;;;;2.90;1.50;;;;;;;;;;5113503;28;20107;-77
2021/05/28 10:54:59;;;;;;;3.85;1.40;;;;;;;;;;5104245;28;20051;-78
2021/05/28 10:57:27;;;;;;;2.88;1.50;;;;;;;;;;5096120;28;20024;-77
2021/05/28 10:59:55;;;;;;;3.08;1.50;;;;;;;;;;5110975;27;20059;-77
2021/05/28 11:02:39;;;;;;;5.40;1.60;;;;;;;;;;5115247;28;20448;-76
2021/05/28 11:05:06;;;;;;;;;;;;;;;;;;5115655;28;20039;-76
2021/05/28 11:07:35;;;;;;;2.13;1.60;;;;;;;;;;5114804;28;19945;-77
2021/05/28 11:10:18;;;;;;;3.67;1.90;;;;;;;;;;5097276;28;20019;-76
2021/05/28 11:12:44;;;;;;;4.60;1.80;;;;;;;;;;5114905;28;20053;-79
2021/05/28 11:15:28;;;;;;;3.53;1.70;;;;;;;;;;5115363;28;20054;-78
2021/05/28 11:18:04;;;;;;;3.05;2.30;;;;;;;;;;5115494;28;20475;-76
2021/05/28 11:20:32;;;;;;;2.95;2.47;;;;;;;;;;5096748;28;20393;-81
2021/05/28 11:22:59;;;;;;;5.97;2.60;;;;;;;;;;5119720;27;20054;-78
2021/05/28 11:25:30;;;;;;;3.20;2.35;;;;;;;;;;5135780;27;20093;-78
2021/05/28 11:28:04;;;;;;;3.97;2.40;;;;;;;;;;5125719;27;20430;-76
2021/05/28 11:30:38;;;;;;;6.13;2.70;;;;;;;;;;5094494;28;20035;-77
2021/05/28 11:33:05;;;;;;;4.97;2.05;;;;;;;;;;5108169;28;20045;-79
2021/05/28 11:35:38;;;;;;;2.55;2.10;;;;;;;;;;5095476;28;20043;-81
2021/05/28 11:38:14;;;;;;;3.33;2.00;;;;;;;;;;5114533;28;20062;-78
2021/05/28 11:40:42;;;;;;;5.05;2.10;;;;;;;;;;5095536;28;20547;-79
2021/05/28 11:43:15;;;;;;;4.30;2.65;;;;;;;;;;5114431;28;20038;-77
2021/05/28 11:45:49;;;;;;;6.55;2.05;;;;;;;;;;5100412;28;20028;-78
2021/05/28 11:48:16;;;;;;;6.63;2.93;;;;;;;;;;5075879;28;20024;-76
2021/05/28 11:50:50;;;;;;;6.90;4.53;;;;;;;;;;5093821;28;20027;-79
2021/05/28 11:53:16;;;;;;;6.45;2.70;;;;;;;;;;5093887;28;20036;-78
2021/05/28 11:56:02;;;;;;;4.07;2.65;;;;;;;;;;5093641;28;20086;-77
2021/05/28 11:58:32;;;;;;;3.55;2.72;;;;;;;;;;5093021;28;20040;-77
2021/05/28 12:00:58;;;;;;;3.47;2.45;;;;;;;;;;5075082;28;20032;-78
2021/05/28 12:03:25;;;;;;;2.75;2.55;;;;;;;;;;5093077;28;20032;-76
2021/05/28 12:05:52;;;;;;;4.10;2.70;;;;;;;;;;5092609;28;20544;-79
2021/05/28 12:08:18;;;;;;;2.72;2.47;;;;;;;;;;5093308;28;20039;-77
2021/05/28 12:10:45;;;;;;;2.35;1.80;;;;;;;;;;5093685;28;20034;-78
2021/05/28 12:13:14;;;;;;;3.38;3.08;;;;;;;;;;5093273;28;20028;-78
2021/05/28 12:15:40;;;;;;;3.85;3.08;;;;;;;;;;5104028;28;20498;-81
2021/05/28 12:18:14;;;;;;;3.28;2.63;;;;;;;;;;5103240;27;20035;-76
2021/05/28 12:20:40;;;;;;;;;;;;;;;;;;5091073;28;20024;-78
2021/05/28 12:23:11;;;;;;;3.97;2.60;;;;;;;;;;5101578;28;20389;-78
2021/05/28 12:25:39;;;;;;;5.47;2.95;;;;;;;;;;5104206;28;20027;-76
2021/05/28 12:28:08;;;;;;;2.85;2.30;;;;;;;;;;5095399;28;20028;-77
2021/05/28 12:30:44;;;;;;;3.17;2.95;;;;;;;;;;5112729;27;20032;-78
2021/05/28 12:33:11;;;;;;;3.88;2.03;;;;;;;;;;5100495;28;20564;-79
2021/05/28 12:35:37;;;;;;;3.55;2.78;;;;;;;;;;5103534;27;20086;-78
2021/05/28 12:38:03;;;;;;;5.70;4.85;;;;;;;;;;5102646;28;20111;-76
2021/05/28 12:40:30;;;;;;;3.60;2.83;;;;;;;;;;5096525;28;20492;-79
2021/05/28 12:42:56;;;;;;;5.45;4.13;;;;;;;;;;5112898;28;20024;-78
2021/05/28 12:45:31;;;;;;;3.55;3.25;;;;;;;;;;5085260;28;20038;-80
2021/05/28 12:47:58;;;;;;;3.80;3.50;;;;;;;;;;5092734;28;20047;-78
2021/05/28 12:53:15;;;;;;;4.38;3.15;;;;;;;;;;5094486;28;20039;-80
2021/05/28 12:55:43;;;;;;;3.17;2.83;;;;;;;;;;5100987;28;20031;-78
2021/05/28 12:58:27;;;;;;;5.20;3.33;;;;;;;;;;5092214;28;20031;-78
2021/05/28 13:01:01;;;;;;;1.77;1.50;;;;;;;;;;5092025;28;20054;-79
2021/05/28 13:03:50;;;;;;;2.88;1.60;;;;;;;;;;5092295;28;20119;-78
2021/05/28 13:06:29;;;;;;;2.00;1.50;;;;;;;;;;5064227;28;20036;-79
2021/05/28 13:09:02;;;;;;;3.05;1.92;;;;;;;;;;5092607;28;20023;-76
2021/05/28 13:11:46;;;;;;;2.40;1.65;;;;;;;;;;5074107;28;20032;-79
2021/05/28 13:14:17;;;;;;;1.85;1.00;;;;;;;;;;5091931;28;20035;-82
2021/05/28 13:16:43;;;;;;;2.05;1.23;;;;;;;;;;5098020;28;20023;-77
2021/05/28 13:19:09;;;;;;;2.65;1.65;;;;;;;;;;5112493;28;20384;-78
2021/05/28 13:21:36;;;;;;;2.45;1.30;;;;;;;;;;5112651;28;20019;-78
2021/05/28 13:24:02;;;;;;;1.30;1.15;;;;;;;;;;5112075;28;20481;-82
2021/05/28 13:26:29;;;;;;;2.35;0.93;;;;;;;;;;5112519;28;20616;-79
2021/05/28 13:28:55;;;;;;;1.88;1.35;;;;;;;;;;5112023;28;20153;-82
2021/05/28 13:31:22;;;;;;;4.32;1.00;;;;;;;;;;5112330;28;20068;-76
2021/05/28 13:33:49;;;;;;;2.08;1.30;;;;;;;;;;5094407;28;20106;-81
2021/05/28 13:36:21;;;;;;;1.60;1.05;;;;;;;;;;5111699;28;20561;-78
2021/05/28 13:38:48;;;;;;;1.95;1.05;;;;;;;;;;5108516;28;20153;-79
2021/05/28 13:41:18;;;;;;;2.38;1.20;;;;;;;;;;5093943;28;20030;-81
2021/05/28 13:43:55;;;;;;;2.70;1.30;;;;;;;;;;5092008;28;20123;-80
2021/05/28 13:46:24;;;;;;;6.50;1.38;;;;;;;;;;5112002;28;20023;-76
2021/05/28 13:48:50;;;;;;;1.48;1.10;;;;;;;;;;5127182;28;20113;-77
2021/05/28 13:51:17;;;;;;;1.20;1.10;;;;;;;;;;5132415;28;20023;-78
2021/05/28 13:53:43;;;;;;;2.50;1.08;;;;;;;;;;5133045;28;20474;-78
2021/05/28 13:56:11;;;;;;;2.05;1.00;;;;;;;;;;5133731;27;20034;-79
2021/05/28 13:58:37;;;;;;;1.50;1.40;;;;;;;;;;5136997;27;20468;-77
2021/05/28 14:01:05;;;;;;;1.88;1.30;;;;;;;;;;5136743;27;20474;-79
2021/05/28 14:03:31;;;;;;;2.75;1.33;;;;;;;;;;5136998;27;20039;-78
2021/05/28 14:05:57;;;;;;;2.28;1.55;;;;;;;;;;5137043;27;20080;-78
2021/05/28 14:08:23;;;;;;;1.80;1.52;;;;;;;;;;5136188;27;20087;-78
2021/05/28 14:10:50;;;;;;;3.17;1.65;;;;;;;;;;5136936;27;20027;-81
2021/05/28 14:13:17;;;;;;;2.50;1.55;;;;;;;;;;5136305;27;20054;-79
2021/05/28 14:15:43;;;;;;;2.92;1.80;;;;;;;;;;5137038;27;20555;-79
2021/05/28 14:18:10;;;;;;;2.38;1.48;;;;;;;;;;5136724;27;20031;-77
2021/05/28 14:20:38;;;;;;;3.38;2.30;;;;;;;;;;5136893;27;20374;-77
2021/05/28 14:23:05;;;;;;;3.20;1.80;;;;;;;;;;5136832;27;20084;-79
2021/05/28 14:25:33;;;;;;;3.45;2.08;;;;;;;;;;5117918;27;20393;-78
2021/05/28 14:28:00;;;;;;;3.45;1.90;;;;;;;;;;5128852;27;20106;-81
2021/05/28 14:30:27;;;;;;;2.65;2.25;;;;;;;;;;5115494;28;20063;-77
2021/05/28 14:32:53;;;;;;;3.13;2.00;;;;;;;;;;5116036;28;20487;-77
2021/05/28 14:35:20;;;;;;;2.40;1.80;;;;;;;;;;5115455;28;20048;-78
2021/05/28 14:37:46;;;;;;;1.88;1.73;;;;;;;;;;5115719;28;20474;-80
2021/05/28 14:40:14;;;;;;;2.63;2.22;;;;;;;;;;5115690;28;20032;-78
2021/05/28 14:42:40;;;;;;;3.42;2.13;;;;;;;;;;5115231;28;20032;-83
2021/05/28 14:45:09;;;;;;;2.55;1.65;;;;;;;;;;5115320;28;20019;-79
2021/05/28 14:47:35;;;;;;;2.72;1.92;;;;;;;;;;5115425;28;20379;-79
2021/05/28 14:50:01;;;;;;;2.25;1.77;;;;;;;;;;5115826;28;20034;-78
2021/05/28 14:52:28;;;;;;;3.78;1.95;;;;;;;;;;5115159;28;20521;-81